sensor_id;sensor_type;location;lat;lon;timestamp;P1;durP1;ratioP1;P2;durP2;ratioP2
4226;SDS011;2127;51.046;7.080;2023-06-14T00:01:27;1.17;;;1.07;;
4226;SDS011;2127;51.046;7.080;2023-06-14T00:03:54;1.70;;;0.95;;
4226;SDS011;2127;51.046;7.080;2023-06-14T00:06:20;0.80;;;0.80;;
4226;SDS011;2127;51.046;7.080;2023-06-14T00:08:49;1.17;;;1.17;;
4226;SDS011;2127;51.046;7.080;2023-06-14T00:11:16;1.23;;;1.13;;
4226;SDS011;2127;51.046;7.080;2023-06-14T00:13:42;0.97;;;0.97;;
4226;SDS011;2127;51.046;7.080;2023-06-14T00:16:10;1.13;;;1.03;;
4226;SDS011;2127;51.046;7.080;2023-06-14T00:18:36;1.70;;;1.60;;
4226;SDS011;2127;51.046;7.080;2023-06-14T00:21:03;1.53;;;1.20;;
4226;SDS011;2127;51.046;7.080;2023-06-14T00:23:29;1.60;;;1.23;;
4226;SDS011;2127;51.046;7.080;2023-06-14T00:25:55;0.93;;;0.93;;
4226;SDS011;2127;51.046;7.080;2023-06-14T00:28:22;0.77;;;0.77;;
4226;SDS011;2127;51.046;7.080;2023-06-14T00:30:48;1.63;;;1.53;;
4226;SDS011;2127;51.046;7.080;2023-06-14T00:33:16;0.93;;;0.90;;
4226;SDS011;2127;51.046;7.080;2023-06-14T00:35:42;1.93;;;0.93;;
4226;SDS011;2127;51.046;7.080;2023-06-14T00:38:08;1.00;;;1.00;;
4226;SDS011;2127;51.046;7.080;2023-06-14T00:40:34;1.33;;;1.00;;
4226;SDS011;2127;51.046;7.080;2023-06-14T00:43:01;5.17;;;1.20;;
4226;SDS011;2127;51.046;7.080;2023-06-14T00:45:27;1.03;;;0.97;;
4226;SDS011;2127;51.046;7.080;2023-06-14T00:47:54;1.00;;;1.00;;
4226;SDS011;2127;51.046;7.080;2023-06-14T00:50:21;1.33;;;1.23;;
4226;SDS011;2127;51.046;7.080;2023-06-14T00:52:48;1.60;;;1.47;;
4226;SDS011;2127;51.046;7.080;2023-06-14T00:55:14;1.10;;;1.10;;
4226;SDS011;2127;51.046;7.080;2023-06-14T00:57:41;1.03;;;1.03;;
4226;SDS011;2127;51.046;7.080;2023-06-14T01:00:07;3.73;;;1.23;;
4226;SDS011;2127;51.046;7.080;2023-06-14T01:02:35;0.83;;;0.83;;
4226;SDS011;2127;51.046;7.080;2023-06-14T01:05:01;2.63;;;0.87;;
4226;SDS011;2127;51.046;7.080;2023-06-14T01:07:31;0.97;;;0.90;;
4226;SDS011;2127;51.046;7.080;2023-06-14T01:10:03;1.00;;;1.00;;
4226;SDS011;2127;51.046;7.080;2023-06-14T01:12:31;1.57;;;0.90;;
4226;SDS011;2127;51.046;7.080;2023-06-14T01:15:02;1.37;;;1.10;;
4226;SDS011;2127;51.046;7.080;2023-06-14T01:17:29;0.80;;;0.80;;
4226;SDS011;2127;51.046;7.080;2023-06-14T01:19:56;1.60;;;0.70;;
4226;SDS011;2127;51.046;7.080;2023-06-14T01:22:24;1.60;;;1.47;;
4226;SDS011;2127;51.046;7.080;2023-06-14T01:24:52;1.40;;;1.30;;
4226;SDS011;2127;51.046;7.080;2023-06-14T01:27:20;5.90;;;0.90;;
4226;SDS011;2127;51.046;7.080;2023-06-14T01:29:46;1.40;;;1.30;;
4226;SDS011;2127;51.046;7.080;2023-06-14T01:32:13;1.20;;;1.10;;
4226;SDS011;2127;51.046;7.080;2023-06-14T01:34:39;1.13;;;1.10;;
4226;SDS011;2127;51.046;7.080;2023-06-14T01:37:06;0.90;;;0.90;;
4226;SDS011;2127;51.046;7.080;2023-06-14T01:39:32;0.93;;;0.93;;
4226;SDS011;2127;51.046;7.080;2023-06-14T01:42:01;1.07;;;0.93;;
4226;SDS011;2127;51.046;7.080;2023-06-14T01:44:27;1.10;;;1.00;;
4226;SDS011;2127;51.046;7.080;2023-06-14T01:46:54;1.03;;;1.03;;
4226;SDS011;2127;51.046;7.080;2023-06-14T01:49:20;1.10;;;1.00;;
4226;SDS011;2127;51.046;7.080;2023-06-14T01:51:47;0.50;;;0.50;;
4226;SDS011;2127;51.046;7.080;2023-06-14T01:54:13;1.27;;;1.00;;
4226;SDS011;2127;51.046;7.080;2023-06-14T01:56:39;0.70;;;0.70;;
4226;SDS011;2127;51.046;7.080;2023-06-14T01:59:07;1.23;;;1.10;;
4226;SDS011;2127;51.046;7.080;2023-06-14T02:01:33;0.87;;;0.80;;
4226;SDS011;2127;51.046;7.080;2023-06-14T02:04:01;0.90;;;0.90;;
4226;SDS011;2127;51.046;7.080;2023-06-14T02:06:27;0.80;;;0.80;;
4226;SDS011;2127;51.046;7.080;2023-06-14T02:08:54;0.83;;;0.83;;
4226;SDS011;2127;51.046;7.080;2023-06-14T02:11:20;1.80;;;0.87;;
4226;SDS011;2127;51.046;7.080;2023-06-14T02:13:46;0.70;;;0.70;;
4226;SDS011;2127;51.046;7.080;2023-06-14T02:16:14;1.33;;;1.23;;
4226;SDS011;2127;51.046;7.080;2023-06-14T02:18:42;1.23;;;0.80;;
4226;SDS011;2127;51.046;7.080;2023-06-14T02:21:08;7.83;;;1.10;;
4226;SDS011;2127;51.046;7.080;2023-06-14T02:23:34;0.97;;;0.97;;
4226;SDS011;2127;51.046;7.080;2023-06-14T02:26:01;1.50;;;1.03;;
4226;SDS011;2127;51.046;7.080;2023-06-14T02:28:27;0.80;;;0.80;;
4226;SDS011;2127;51.046;7.080;2023-06-14T02:30:54;0.67;;;0.67;;
4226;SDS011;2127;51.046;7.080;2023-06-14T02:33:21;0.70;;;0.60;;
4226;SDS011;2127;51.046;7.080;2023-06-14T02:35:48;1.23;;;0.80;;
4226;SDS011;2127;51.046;7.080;2023-06-14T02:38:15;0.97;;;0.97;;
4226;SDS011;2127;51.046;7.080;2023-06-14T02:40:41;3.23;;;1.03;;
4226;SDS011;2127;51.046;7.080;2023-06-14T02:43:07;0.73;;;0.73;;
4226;SDS011;2127;51.046;7.080;2023-06-14T02:45:34;2.57;;;0.80;;
4226;SDS011;2127;51.046;7.080;2023-06-14T02:48:00;1.75;;;1.25;;
4226;SDS011;2127;51.046;7.080;2023-06-14T02:50:28;0.80;;;0.80;;
4226;SDS011;2127;51.046;7.080;2023-06-14T02:52:55;3.73;;;0.90;;
4226;SDS011;2127;51.046;7.080;2023-06-14T02:55:22;1.03;;;0.83;;
4226;SDS011;2127;51.046;7.080;2023-06-14T02:57:48;0.90;;;0.80;;
4226;SDS011;2127;51.046;7.080;2023-06-14T03:00:14;0.57;;;0.57;;
4226;SDS011;2127;51.046;7.080;2023-06-14T03:02:41;1.13;;;0.90;;
4226;SDS011;2127;51.046;7.080;2023-06-14T03:05:09;2.50;;;0.80;;
4226;SDS011;2127;51.046;7.080;2023-06-14T03:07:36;1.50;;;0.70;;
4226;SDS011;2127;51.046;7.080;2023-06-14T03:10:06;2.23;;;1.00;;
4226;SDS011;2127;51.046;7.080;2023-06-14T03:12:33;1.10;;;1.10;;
4226;SDS011;2127;51.046;7.080;2023-06-14T03:15:00;1.03;;;1.03;;
4226;SDS011;2127;51.046;7.080;2023-06-14T03:17:29;0.70;;;0.70;;
4226;SDS011;2127;51.046;7.080;2023-06-14T03:19:58;1.10;;;0.70;;
4226;SDS011;2127;51.046;7.080;2023-06-14T03:22:24;0.80;;;0.80;;
4226;SDS011;2127;51.046;7.080;2023-06-14T03:24:52;0.90;;;0.90;;
4226;SDS011;2127;51.046;7.080;2023-06-14T03:27:19;1.00;;;0.93;;
4226;SDS011;2127;51.046;7.080;2023-06-14T03:29:45;0.50;;;0.50;;
4226;SDS011;2127;51.046;7.080;2023-06-14T03:32:11;2.93;;;1.17;;
4226;SDS011;2127;51.046;7.080;2023-06-14T03:34:37;0.93;;;0.60;;
4226;SDS011;2127;51.046;7.080;2023-06-14T03:37:04;0.70;;;0.70;;
4226;SDS011;2127;51.046;7.080;2023-06-14T03:39:30;1.53;;;1.47;;
4226;SDS011;2127;51.046;7.080;2023-06-14T03:41:58;0.70;;;0.70;;
4226;SDS011;2127;51.046;7.080;2023-06-14T03:44:26;2.50;;;1.23;;
4226;SDS011;2127;51.046;7.080;2023-06-14T03:46:52;1.13;;;0.80;;
4226;SDS011;2127;51.046;7.080;2023-06-14T03:49:18;0.97;;;0.97;;
4226;SDS011;2127;51.046;7.080;2023-06-14T03:51:45;0.80;;;0.67;;
4226;SDS011;2127;51.046;7.080;2023-06-14T03:54:16;0.87;;;0.73;;
4226;SDS011;2127;51.046;7.080;2023-06-14T03:56:42;0.80;;;0.80;;
4226;SDS011;2127;51.046;7.080;2023-06-14T03:59:10;0.73;;;0.73;;
4226;SDS011;2127;51.046;7.080;2023-06-14T04:01:36;0.90;;;0.90;;
4226;SDS011;2127;51.046;7.080;2023-06-14T04:04:02;2.50;;;1.07;;
4226;SDS011;2127;51.046;7.080;2023-06-14T04:06:29;1.40;;;1.03;;
4226;SDS011;2127;51.046;7.080;2023-06-14T04:08:58;0.60;;;0.60;;
4226;SDS011;2127;51.046;7.080;2023-06-14T04:11:27;0.70;;;0.70;;
4226;SDS011;2127;51.046;7.080;2023-06-14T04:13:53;0.90;;;0.90;;
4226;SDS011;2127;51.046;7.080;2023-06-14T04:16:22;1.60;;;1.03;;
4226;SDS011;2127;51.046;7.080;2023-06-14T04:18:49;0.80;;;0.80;;
4226;SDS011;2127;51.046;7.080;2023-06-14T04:21:17;0.60;;;0.60;;
4226;SDS011;2127;51.046;7.080;2023-06-14T04:23:43;0.83;;;0.83;;
4226;SDS011;2127;51.046;7.080;2023-06-14T04:26:10;0.50;;;0.50;;
4226;SDS011;2127;51.046;7.080;2023-06-14T04:28:36;1.13;;;1.13;;
4226;SDS011;2127;51.046;7.080;2023-06-14T04:31:05;0.80;;;0.70;;
4226;SDS011;2127;51.046;7.080;2023-06-14T04:33:34;2.10;;;0.90;;
4226;SDS011;2127;51.046;7.080;2023-06-14T04:36:07;1.17;;;0.60;;
4226;SDS011;2127;51.046;7.080;2023-06-14T04:38:34;0.70;;;0.70;;
4226;SDS011;2127;51.046;7.080;2023-06-14T04:41:01;0.90;;;0.90;;
4226;SDS011;2127;51.046;7.080;2023-06-14T04:43:27;0.60;;;0.60;;
4226;SDS011;2127;51.046;7.080;2023-06-14T04:45:53;1.27;;;1.00;;
4226;SDS011;2127;51.046;7.080;2023-06-14T04:48:21;0.63;;;0.63;;
4226;SDS011;2127;51.046;7.080;2023-06-14T04:50:49;17.50;;;1.37;;
4226;SDS011;2127;51.046;7.080;2023-06-14T04:53:20;0.93;;;0.87;;
4226;SDS011;2127;51.046;7.080;2023-06-14T04:55:47;0.67;;;0.67;;
4226;SDS011;2127;51.046;7.080;2023-06-14T04:58:15;1.10;;;1.10;;
4226;SDS011;2127;51.046;7.080;2023-06-14T05:00:41;0.43;;;0.43;;
4226;SDS011;2127;51.046;7.080;2023-06-14T05:03:08;0.70;;;0.70;;
4226;SDS011;2127;51.046;7.080;2023-06-14T05:05:38;1.00;;;1.00;;
4226;SDS011;2127;51.046;7.080;2023-06-14T05:08:05;0.60;;;0.60;;
4226;SDS011;2127;51.046;7.080;2023-06-14T05:10:32;1.33;;;1.00;;
4226;SDS011;2127;51.046;7.080;2023-06-14T05:12:59;0.80;;;0.80;;
4226;SDS011;2127;51.046;7.080;2023-06-14T05:15:26;1.60;;;1.07;;
4226;SDS011;2127;51.046;7.080;2023-06-14T05:17:54;0.80;;;0.80;;
4226;SDS011;2127;51.046;7.080;2023-06-14T05:20:20;0.83;;;0.60;;
4226;SDS011;2127;51.046;7.080;2023-06-14T05:22:48;0.80;;;0.80;;
4226;SDS011;2127;51.046;7.080;2023-06-14T05:25:18;0.87;;;0.70;;
4226;SDS011;2127;51.046;7.080;2023-06-14T05:27:44;1.13;;;1.03;;
4226;SDS011;2127;51.046;7.080;2023-06-14T05:30:11;0.50;;;0.50;;
4226;SDS011;2127;51.046;7.080;2023-06-14T05:32:37;7.37;;;0.97;;
4226;SDS011;2127;51.046;7.080;2023-06-14T05:35:04;0.87;;;0.87;;
4226;SDS011;2127;51.046;7.080;2023-06-14T05:37:30;0.70;;;0.70;;
4226;SDS011;2127;51.046;7.080;2023-06-14T05:39:57;0.70;;;0.70;;
4226;SDS011;2127;51.046;7.080;2023-06-14T05:42:24;1.20;;;1.20;;
4226;SDS011;2127;51.046;7.080;2023-06-14T05:44:51;0.70;;;0.70;;
4226;SDS011;2127;51.046;7.080;2023-06-14T05:47:17;0.93;;;0.90;;
4226;SDS011;2127;51.046;7.080;2023-06-14T05:49:43;2.43;;;1.03;;
4226;SDS011;2127;51.046;7.080;2023-06-14T05:52:09;0.60;;;0.60;;
4226;SDS011;2127;51.046;7.080;2023-06-14T05:54:38;0.50;;;0.50;;
4226;SDS011;2127;51.046;7.080;2023-06-14T05:57:04;0.63;;;0.63;;
4226;SDS011;2127;51.046;7.080;2023-06-14T05:59:32;3.70;;;1.13;;
4226;SDS011;2127;51.046;7.080;2023-06-14T06:01:59;4.77;;;0.93;;
4226;SDS011;2127;51.046;7.080;2023-06-14T06:04:25;0.87;;;0.87;;
4226;SDS011;2127;51.046;7.080;2023-06-14T06:06:51;0.90;;;0.90;;
4226;SDS011;2127;51.046;7.080;2023-06-14T06:09:18;1.10;;;0.60;;
4226;SDS011;2127;51.046;7.080;2023-06-14T06:11:45;2.83;;;1.00;;
4226;SDS011;2127;51.046;7.080;2023-06-14T06:14:11;1.13;;;0.90;;
4226;SDS011;2127;51.046;7.080;2023-06-14T06:16:39;1.10;;;0.90;;
4226;SDS011;2127;51.046;7.080;2023-06-14T06:19:05;4.53;;;0.77;;
4226;SDS011;2127;51.046;7.080;2023-06-14T06:21:31;1.17;;;0.87;;
4226;SDS011;2127;51.046;7.080;2023-06-14T06:23:58;7.73;;;0.70;;
4226;SDS011;2127;51.046;7.080;2023-06-14T06:26:27;0.40;;;0.40;;
4226;SDS011;2127;51.046;7.080;2023-06-14T06:28:53;1.80;;;0.87;;
4226;SDS011;2127;51.046;7.080;2023-06-14T06:31:20;0.73;;;0.73;;
4226;SDS011;2127;51.046;7.080;2023-06-14T06:33:48;1.20;;;0.57;;
4226;SDS011;2127;51.046;7.080;2023-06-14T06:36:15;0.60;;;0.60;;
4226;SDS011;2127;51.046;7.080;2023-06-14T06:38:41;0.50;;;0.50;;
4226;SDS011;2127;51.046;7.080;2023-06-14T06:41:08;0.50;;;0.50;;
4226;SDS011;2127;51.046;7.080;2023-06-14T06:43:34;0.80;;;0.60;;
4226;SDS011;2127;51.046;7.080;2023-06-14T06:46:00;0.50;;;0.50;;
4226;SDS011;2127;51.046;7.080;2023-06-14T06:48:27;0.63;;;0.63;;
4226;SDS011;2127;51.046;7.080;2023-06-14T06:50:54;0.60;;;0.60;;
4226;SDS011;2127;51.046;7.080;2023-06-14T06:53:21;0.70;;;0.57;;
4226;SDS011;2127;51.046;7.080;2023-06-14T06:55:47;0.57;;;0.57;;
4226;SDS011;2127;51.046;7.080;2023-06-14T06:58:14;0.57;;;0.57;;
4226;SDS011;2127;51.046;7.080;2023-06-14T07:00:40;1.10;;;0.97;;
4226;SDS011;2127;51.046;7.080;2023-06-14T07:03:06;0.60;;;0.60;;
4226;SDS011;2127;51.046;7.080;2023-06-14T07:05:33;0.50;;;0.50;;
4226;SDS011;2127;51.046;7.080;2023-06-14T07:08:00;1.83;;;0.80;;
4226;SDS011;2127;51.046;7.080;2023-06-14T07:10:27;0.67;;;0.67;;
4226;SDS011;2127;51.046;7.080;2023-06-14T07:12:54;0.60;;;0.60;;
4226;SDS011;2127;51.046;7.080;2023-06-14T07:15:20;0.70;;;0.50;;
4226;SDS011;2127;51.046;7.080;2023-06-14T07:17:46;0.47;;;0.43;;
4226;SDS011;2127;51.046;7.080;2023-06-14T07:20:13;1.37;;;0.50;;
4226;SDS011;2127;51.046;7.080;2023-06-14T07:22:40;0.40;;;0.40;;
4226;SDS011;2127;51.046;7.080;2023-06-14T07:25:09;0.83;;;0.50;;
4226;SDS011;2127;51.046;7.080;2023-06-14T07:27:37;0.80;;;0.60;;
4226;SDS011;2127;51.046;7.080;2023-06-14T07:30:04;0.40;;;0.40;;
4226;SDS011;2127;51.046;7.080;2023-06-14T07:32:31;0.40;;;0.40;;
4226;SDS011;2127;51.046;7.080;2023-06-14T07:34:57;0.50;;;0.50;;
4226;SDS011;2127;51.046;7.080;2023-06-14T07:37:24;0.40;;;0.40;;
4226;SDS011;2127;51.046;7.080;2023-06-14T07:39:50;0.40;;;0.40;;
4226;SDS011;2127;51.046;7.080;2023-06-14T07:42:18;0.40;;;0.40;;
4226;SDS011;2127;51.046;7.080;2023-06-14T07:44:44;0.50;;;0.50;;
4226;SDS011;2127;51.046;7.080;2023-06-14T07:47:11;0.50;;;0.40;;
4226;SDS011;2127;51.046;7.080;2023-06-14T07:49:37;0.40;;;0.40;;
4226;SDS011;2127;51.046;7.080;2023-06-14T07:52:03;0.60;;;0.50;;
4226;SDS011;2127;51.046;7.080;2023-06-14T07:54:30;0.40;;;0.40;;
4226;SDS011;2127;51.046;7.080;2023-06-14T07:56:57;0.60;;;0.60;;
4226;SDS011;2127;51.046;7.080;2023-06-14T07:59:26;0.30;;;0.30;;
4226;SDS011;2127;51.046;7.080;2023-06-14T08:01:53;0.40;;;0.40;;
4226;SDS011;2127;51.046;7.080;2023-06-14T08:04:19;0.70;;;0.70;;
4226;SDS011;2127;51.046;7.080;2023-06-14T08:06:45;0.50;;;0.50;;
4226;SDS011;2127;51.046;7.080;2023-06-14T08:09:13;4.93;;;0.60;;
4226;SDS011;2127;51.046;7.080;2023-06-14T08:11:39;0.50;;;0.50;;
4226;SDS011;2127;51.046;7.080;2023-06-14T08:14:05;0.30;;;0.30;;
4226;SDS011;2127;51.046;7.080;2023-06-14T08:16:33;0.47;;;0.47;;
4226;SDS011;2127;51.046;7.080;2023-06-14T08:18:59;0.60;;;0.60;;
4226;SDS011;2127;51.046;7.080;2023-06-14T08:21:26;0.40;;;0.40;;
4226;SDS011;2127;51.046;7.080;2023-06-14T08:23:54;0.40;;;0.40;;
4226;SDS011;2127;51.046;7.080;2023-06-14T08:26:20;0.50;;;0.50;;
4226;SDS011;2127;51.046;7.080;2023-06-14T08:28:46;0.40;;;0.40;;
4226;SDS011;2127;51.046;7.080;2023-06-14T08:31:13;0.63;;;0.63;;
4226;SDS011;2127;51.046;7.080;2023-06-14T08:33:40;0.50;;;0.50;;
4226;SDS011;2127;51.046;7.080;2023-06-14T08:36:08;0.67;;;0.67;;
4226;SDS011;2127;51.046;7.080;2023-06-14T08:38:35;0.50;;;0.50;;
4226;SDS011;2127;51.046;7.080;2023-06-14T08:41:02;0.60;;;0.60;;
4226;SDS011;2127;51.046;7.080;2023-06-14T08:43:30;0.40;;;0.40;;
4226;SDS011;2127;51.046;7.080;2023-06-14T08:45:57;0.50;;;0.50;;
4226;SDS011;2127;51.046;7.080;2023-06-14T08:48:25;0.70;;;0.70;;
4226;SDS011;2127;51.046;7.080;2023-06-14T08:50:53;0.60;;;0.60;;
4226;SDS011;2127;51.046;7.080;2023-06-14T08:53:26;0.40;;;0.40;;
4226;SDS011;2127;51.046;7.080;2023-06-14T08:55:53;0.40;;;0.40;;
4226;SDS011;2127;51.046;7.080;2023-06-14T08:58:20;0.40;;;0.40;;
4226;SDS011;2127;51.046;7.080;2023-06-14T09:00:49;0.40;;;0.40;;
4226;SDS011;2127;51.046;7.080;2023-06-14T09:03:17;0.73;;;0.73;;
4226;SDS011;2127;51.046;7.080;2023-06-14T09:05:45;0.60;;;0.60;;
4226;SDS011;2127;51.046;7.080;2023-06-14T09:08:14;0.80;;;0.70;;
4226;SDS011;2127;51.046;7.080;2023-06-14T09:10:41;0.77;;;0.77;;
4226;SDS011;2127;51.046;7.080;2023-06-14T09:13:07;0.50;;;0.50;;
4226;SDS011;2127;51.046;7.080;2023-06-14T09:15:34;0.40;;;0.40;;
4226;SDS011;2127;51.046;7.080;2023-06-14T09:18:01;0.40;;;0.40;;
4226;SDS011;2127;51.046;7.080;2023-06-14T09:20:28;0.57;;;0.57;;
4226;SDS011;2127;51.046;7.080;2023-06-14T09:22:55;0.40;;;0.40;;
4226;SDS011;2127;51.046;7.080;2023-06-14T09:25:23;0.47;;;0.47;;
4226;SDS011;2127;51.046;7.080;2023-06-14T09:27:51;0.40;;;0.40;;
4226;SDS011;2127;51.046;7.080;2023-06-14T09:30:19;0.50;;;0.50;;
4226;SDS011;2127;51.046;7.080;2023-06-14T09:32:46;0.40;;;0.40;;
4226;SDS011;2127;51.046;7.080;2023-06-14T09:35:12;0.47;;;0.47;;
4226;SDS011;2127;51.046;7.080;2023-06-14T09:37:38;0.40;;;0.40;;
4226;SDS011;2127;51.046;7.080;2023-06-14T09:40:05;0.40;;;0.40;;
4226;SDS011;2127;51.046;7.080;2023-06-14T09:42:33;0.40;;;0.40;;
4226;SDS011;2127;51.046;7.080;2023-06-14T09:45:00;0.60;;;0.53;;
4226;SDS011;2127;51.046;7.080;2023-06-14T09:47:28;0.40;;;0.40;;
4226;SDS011;2127;51.046;7.080;2023-06-14T09:49:54;0.40;;;0.40;;
4226;SDS011;2127;51.046;7.080;2023-06-14T09:52:21;0.53;;;0.50;;
4226;SDS011;2127;51.046;7.080;2023-06-14T09:54:48;10.10;;;0.67;;
4226;SDS011;2127;51.046;7.080;2023-06-14T09:57:15;0.50;;;0.50;;
4226;SDS011;2127;51.046;7.080;2023-06-14T09:59:44;0.83;;;0.83;;
4226;SDS011;2127;51.046;7.080;2023-06-14T10:02:11;0.50;;;0.50;;
4226;SDS011;2127;51.046;7.080;2023-06-14T10:04:39;0.90;;;0.80;;
4226;SDS011;2127;51.046;7.080;2023-06-14T10:07:07;0.60;;;0.60;;
4226;SDS011;2127;51.046;7.080;2023-06-14T10:09:33;0.40;;;0.40;;
4226;SDS011;2127;51.046;7.080;2023-06-14T10:12:00;0.40;;;0.40;;
4226;SDS011;2127;51.046;7.080;2023-06-14T10:14:26;0.73;;;0.50;;
4226;SDS011;2127;51.046;7.080;2023-06-14T10:16:56;0.40;;;0.40;;
4226;SDS011;2127;51.046;7.080;2023-06-14T10:19:25;0.80;;;0.80;;
4226;SDS011;2127;51.046;7.080;2023-06-14T10:22:00;0.67;;;0.40;;
4226;SDS011;2127;51.046;7.080;2023-06-14T10:24:28;0.43;;;0.43;;
4226;SDS011;2127;51.046;7.080;2023-06-14T10:26:56;0.40;;;0.40;;
4226;SDS011;2127;51.046;7.080;2023-06-14T10:29:23;0.50;;;0.50;;
4226;SDS011;2127;51.046;7.080;2023-06-14T10:31:50;1.73;;;0.83;;
4226;SDS011;2127;51.046;7.080;2023-06-14T10:34:24;0.40;;;0.40;;
4226;SDS011;2127;51.046;7.080;2023-06-14T10:37:00;0.53;;;0.40;;
4226;SDS011;2127;51.046;7.080;2023-06-14T10:39:27;0.43;;;0.43;;
4226;SDS011;2127;51.046;7.080;2023-06-14T10:41:55;0.63;;;0.63;;
4226;SDS011;2127;51.046;7.080;2023-06-14T10:44:31;0.70;;;0.57;;
4226;SDS011;2127;51.046;7.080;2023-06-14T10:46:58;0.50;;;0.50;;
4226;SDS011;2127;51.046;7.080;2023-06-14T10:49:37;0.50;;;0.50;;
4226;SDS011;2127;51.046;7.080;2023-06-14T10:52:07;0.50;;;0.50;;
4226;SDS011;2127;51.046;7.080;2023-06-14T10:54:34;0.70;;;0.60;;
4226;SDS011;2127;51.046;7.080;2023-06-14T10:57:00;0.80;;;0.70;;
4226;SDS011;2127;51.046;7.080;2023-06-14T10:59:28;5.70;;;0.40;;
4226;SDS011;2127;51.046;7.080;2023-06-14T11:01:56;0.50;;;0.50;;
4226;SDS011;2127;51.046;7.080;2023-06-14T11:04:23;0.47;;;0.47;;
4226;SDS011;2127;51.046;7.080;2023-06-14T11:06:55;0.87;;;0.63;;
4226;SDS011;2127;51.046;7.080;2023-06-14T11:12:09;0.30;;;0.30;;
4226;SDS011;2127;51.046;7.080;2023-06-14T11:14:36;0.57;;;0.57;;
4226;SDS011;2127;51.046;7.080;2023-06-14T11:17:02;0.40;;;0.40;;
4226;SDS011;2127;51.046;7.080;2023-06-14T11:19:29;0.50;;;0.50;;
4226;SDS011;2127;51.046;7.080;2023-06-14T11:21:58;0.40;;;0.40;;
4226;SDS011;2127;51.046;7.080;2023-06-14T11:24:24;0.40;;;0.40;;
4226;SDS011;2127;51.046;7.080;2023-06-14T11:26:51;0.43;;;0.43;;
4226;SDS011;2127;51.046;7.080;2023-06-14T11:29:19;0.60;;;0.60;;
4226;SDS011;2127;51.046;7.080;2023-06-14T11:31:46;0.50;;;0.50;;
4226;SDS011;2127;51.046;7.080;2023-06-14T11:34:13;0.40;;;0.40;;
4226;SDS011;2127;51.046;7.080;2023-06-14T11:36:39;0.40;;;0.40;;
4226;SDS011;2127;51.046;7.080;2023-06-14T11:39:08;0.40;;;0.40;;
4226;SDS011;2127;51.046;7.080;2023-06-14T11:41:35;0.50;;;0.50;;
4226;SDS011;2127;51.046;7.080;2023-06-14T11:44:02;0.40;;;0.40;;
4226;SDS011;2127;51.046;7.080;2023-06-14T11:46:29;0.40;;;0.40;;
4226;SDS011;2127;51.046;7.080;2023-06-14T11:48:55;0.63;;;0.63;;
4226;SDS011;2127;51.046;7.080;2023-06-14T11:51:21;0.30;;;0.30;;
4226;SDS011;2127;51.046;7.080;2023-06-14T11:53:48;0.40;;;0.40;;
4226;SDS011;2127;51.046;7.080;2023-06-14T11:56:15;0.50;;;0.40;;
4226;SDS011;2127;51.046;7.080;2023-06-14T11:58:42;0.30;;;0.30;;
4226;SDS011;2127;51.046;7.080;2023-06-14T12:01:08;0.50;;;0.50;;
4226;SDS011;2127;51.046;7.080;2023-06-14T12:03:35;0.50;;;0.50;;
4226;SDS011;2127;51.046;7.080;2023-06-14T12:06:04;0.30;;;0.30;;
4226;SDS011;2127;51.046;7.080;2023-06-14T12:08:33;0.40;;;0.40;;
4226;SDS011;2127;51.046;7.080;2023-06-14T12:11:05;0.40;;;0.40;;
4226;SDS011;2127;51.046;7.080;2023-06-14T12:13:34;0.40;;;0.40;;
4226;SDS011;2127;51.046;7.080;2023-06-14T12:16:01;0.40;;;0.40;;
4226;SDS011;2127;51.046;7.080;2023-06-14T12:18:34;1.23;;;0.50;;
4226;SDS011;2127;51.046;7.080;2023-06-14T12:21:00;0.30;;;0.30;;
4226;SDS011;2127;51.046;7.080;2023-06-14T12:23:38;0.40;;;0.40;;
4226;SDS011;2127;51.046;7.080;2023-06-14T12:26:04;0.40;;;0.40;;
4226;SDS011;2127;51.046;7.080;2023-06-14T12:28:31;0.73;;;0.73;;
4226;SDS011;2127;51.046;7.080;2023-06-14T12:30:58;0.40;;;0.40;;
4226;SDS011;2127;51.046;7.080;2023-06-14T12:33:25;0.50;;;0.50;;
4226;SDS011;2127;51.046;7.080;2023-06-14T12:35:53;0.50;;;0.50;;
4226;SDS011;2127;51.046;7.080;2023-06-14T12:38:21;0.37;;;0.37;;
4226;SDS011;2127;51.046;7.080;2023-06-14T12:40:47;0.40;;;0.40;;
4226;SDS011;2127;51.046;7.080;2023-06-14T12:43:14;0.40;;;0.40;;
4226;SDS011;2127;51.046;7.080;2023-06-14T12:45:40;1.13;;;0.40;;
4226;SDS011;2127;51.046;7.080;2023-06-14T12:48:08;0.50;;;0.50;;
4226;SDS011;2127;51.046;7.080;2023-06-14T12:50:34;0.40;;;0.40;;
4226;SDS011;2127;51.046;7.080;2023-06-14T12:53:00;0.30;;;0.30;;
4226;SDS011;2127;51.046;7.080;2023-06-14T12:55:27;0.70;;;0.50;;
4226;SDS011;2127;51.046;7.080;2023-06-14T12:57:53;0.57;;;0.57;;
4226;SDS011;2127;51.046;7.080;2023-06-14T13:00:19;0.40;;;0.40;;
4226;SDS011;2127;51.046;7.080;2023-06-14T13:02:47;0.40;;;0.40;;
4226;SDS011;2127;51.046;7.080;2023-06-14T13:05:14;0.40;;;0.40;;
4226;SDS011;2127;51.046;7.080;2023-06-14T13:07:41;0.50;;;0.50;;
4226;SDS011;2127;51.046;7.080;2023-06-14T13:10:07;0.50;;;0.40;;
4226;SDS011;2127;51.046;7.080;2023-06-14T13:12:33;0.40;;;0.40;;
4226;SDS011;2127;51.046;7.080;2023-06-14T13:14:59;0.53;;;0.40;;
4226;SDS011;2127;51.046;7.080;2023-06-14T13:17:26;1.80;;;0.60;;
4226;SDS011;2127;51.046;7.080;2023-06-14T13:19:52;0.50;;;0.50;;
4226;SDS011;2127;51.046;7.080;2023-06-14T13:22:20;0.50;;;0.40;;
4226;SDS011;2127;51.046;7.080;2023-06-14T13:24:46;0.40;;;0.40;;
4226;SDS011;2127;51.046;7.080;2023-06-14T13:27:13;0.40;;;0.40;;
4226;SDS011;2127;51.046;7.080;2023-06-14T13:29:39;0.40;;;0.40;;
4226;SDS011;2127;51.046;7.080;2023-06-14T13:32:06;0.40;;;0.40;;
4226;SDS011;2127;51.046;7.080;2023-06-14T13:34:32;0.40;;;0.40;;
4226;SDS011;2127;51.046;7.080;2023-06-14T13:36:59;0.50;;;0.50;;
4226;SDS011;2127;51.046;7.080;2023-06-14T13:39:26;3.40;;;0.60;;
4226;SDS011;2127;51.046;7.080;2023-06-14T13:41:52;0.47;;;0.47;;
4226;SDS011;2127;51.046;7.080;2023-06-14T13:44:19;0.93;;;0.50;;
4226;SDS011;2127;51.046;7.080;2023-06-14T13:46:46;0.53;;;0.53;;
4226;SDS011;2127;51.046;7.080;2023-06-14T13:49:13;7.73;;;0.70;;
4226;SDS011;2127;51.046;7.080;2023-06-14T13:51:39;0.50;;;0.50;;
4226;SDS011;2127;51.046;7.080;2023-06-14T13:54:05;0.50;;;0.40;;
4226;SDS011;2127;51.046;7.080;2023-06-14T13:56:33;0.40;;;0.40;;
4226;SDS011;2127;51.046;7.080;2023-06-14T13:58:59;0.47;;;0.47;;
4226;SDS011;2127;51.046;7.080;2023-06-14T14:01:26;0.53;;;0.53;;
4226;SDS011;2127;51.046;7.080;2023-06-14T14:03:53;0.50;;;0.50;;
4226;SDS011;2127;51.046;7.080;2023-06-14T14:06:20;0.40;;;0.40;;
4226;SDS011;2127;51.046;7.080;2023-06-14T14:08:46;0.47;;;0.47;;
4226;SDS011;2127;51.046;7.080;2023-06-14T14:11:13;0.60;;;0.60;;
4226;SDS011;2127;51.046;7.080;2023-06-14T14:13:42;0.57;;;0.50;;
4226;SDS011;2127;51.046;7.080;2023-06-14T14:16:08;1.53;;;0.40;;
4226;SDS011;2127;51.046;7.080;2023-06-14T14:18:35;0.50;;;0.50;;
4226;SDS011;2127;51.046;7.080;2023-06-14T14:21:02;0.40;;;0.40;;
4226;SDS011;2127;51.046;7.080;2023-06-14T14:23:28;0.40;;;0.40;;
4226;SDS011;2127;51.046;7.080;2023-06-14T14:25:54;0.70;;;0.70;;
4226;SDS011;2127;51.046;7.080;2023-06-14T14:28:21;0.50;;;0.50;;
4226;SDS011;2127;51.046;7.080;2023-06-14T14:30:49;0.50;;;0.50;;
4226;SDS011;2127;51.046;7.080;2023-06-14T14:33:15;2.30;;;0.70;;
4226;SDS011;2127;51.046;7.080;2023-06-14T14:35:42;0.90;;;0.57;;
4226;SDS011;2127;51.046;7.080;2023-06-14T14:38:09;0.50;;;0.50;;
4226;SDS011;2127;51.046;7.080;2023-06-14T14:40:35;0.50;;;0.50;;
4226;SDS011;2127;51.046;7.080;2023-06-14T14:43:02;1.90;;;0.70;;
4226;SDS011;2127;51.046;7.080;2023-06-14T14:45:28;0.50;;;0.50;;
4226;SDS011;2127;51.046;7.080;2023-06-14T14:47:55;0.50;;;0.50;;
4226;SDS011;2127;51.046;7.080;2023-06-14T14:50:22;0.40;;;0.40;;
4226;SDS011;2127;51.046;7.080;2023-06-14T14:52:48;0.97;;;0.60;;
4226;SDS011;2127;51.046;7.080;2023-06-14T14:55:14;0.40;;;0.40;;
4226;SDS011;2127;51.046;7.080;2023-06-14T14:57:41;0.60;;;0.60;;
4226;SDS011;2127;51.046;7.080;2023-06-14T15:00:07;0.50;;;0.50;;
4226;SDS011;2127;51.046;7.080;2023-06-14T15:02:34;0.50;;;0.50;;
4226;SDS011;2127;51.046;7.080;2023-06-14T15:05:02;0.40;;;0.40;;
4226;SDS011;2127;51.046;7.080;2023-06-14T15:07:28;0.40;;;0.40;;
4226;SDS011;2127;51.046;7.080;2023-06-14T15:09:55;0.60;;;0.60;;
4226;SDS011;2127;51.046;7.080;2023-06-14T15:12:21;0.77;;;0.77;;
4226;SDS011;2127;51.046;7.080;2023-06-14T15:14:49;0.40;;;0.40;;
4226;SDS011;2127;51.046;7.080;2023-06-14T15:17:15;0.53;;;0.53;;